sensor_id;sensor_type;location;lat;lon;timestamp;temperature;humidity
69189;DHT22;56302;52.322;5.926;2023-04-20T00:00:05;5.20;53.10
69189;DHT22;56302;52.322;5.926;2023-04-20T00:02:42;5.20;53.90
69189;DHT22;56302;52.322;5.926;2023-04-20T00:05:09;5.10;53.30
69189;DHT22;56302;52.322;5.926;2023-04-20T00:07:35;5.10;53.50
69189;DHT22;56302;52.322;5.926;2023-04-20T00:10:01;5.00;54.30
69189;DHT22;56302;52.322;5.926;2023-04-20T00:12:27;5.00;54.10
69189;DHT22;56302;52.322;5.926;2023-04-20T00:14:53;4.90;54.60
69189;DHT22;56302;52.322;5.926;2023-04-20T00:17:18;5.00;54.70
69189;DHT22;56302;52.322;5.926;2023-04-20T00:19:44;4.90;54.90
69189;DHT22;56302;52.322;5.926;2023-04-20T00:22:10;5.00;55.50
69189;DHT22;56302;52.322;5.926;2023-04-20T00:24:36;4.90;55.10
69189;DHT22;56302;52.322;5.926;2023-04-20T00:27:02;5.00;55.40
69189;DHT22;56302;52.322;5.926;2023-04-20T00:29:27;5.00;55.90
69189;DHT22;56302;52.322;5.926;2023-04-20T00:31:53;5.00;56.30
69189;DHT22;56302;52.322;5.926;2023-04-20T00:34:18;5.10;56.40
69189;DHT22;56302;52.322;5.926;2023-04-20T00:36:44;5.00;57.10
69189;DHT22;56302;52.322;5.926;2023-04-20T00:39:10;5.10;57.00
69189;DHT22;56302;52.322;5.926;2023-04-20T00:41:35;5.20;57.10
69189;DHT22;56302;52.322;5.926;2023-04-20T00:44:01;5.30;57.90
69189;DHT22;56302;52.322;5.926;2023-04-20T00:46:26;5.30;57.90
69189;DHT22;56302;52.322;5.926;2023-04-20T00:48:53;5.30;58.50
69189;DHT22;56302;52.322;5.926;2023-04-20T00:51:20;5.40;58.90
69189;DHT22;56302;52.322;5.926;2023-04-20T00:53:46;5.40;59.20
69189;DHT22;56302;52.322;5.926;2023-04-20T00:56:15;5.60;59.00
69189;DHT22;56302;52.322;5.926;2023-04-20T00:58:44;5.60;59.00
69189;DHT22;56302;52.322;5.926;2023-04-20T01:01:11;5.60;59.70
69189;DHT22;56302;52.322;5.926;2023-04-20T01:03:38;5.60;60.40
69189;DHT22;56302;52.322;5.926;2023-04-20T01:06:04;5.70;60.70
69189;DHT22;56302;52.322;5.926;2023-04-20T01:08:30;5.70;61.60
69189;DHT22;56302;52.322;5.926;2023-04-20T01:10:56;5.70;61.20
69189;DHT22;56302;52.322;5.926;2023-04-20T01:13:22;5.70;61.80
69189;DHT22;56302;52.322;5.926;2023-04-20T01:15:48;5.70;62.20
69189;DHT22;56302;52.322;5.926;2023-04-20T01:18:13;5.70;61.90
69189;DHT22;56302;52.322;5.926;2023-04-20T01:20:39;5.60;62.40
69189;DHT22;56302;52.322;5.926;2023-04-20T01:23:05;5.60;63.20
69189;DHT22;56302;52.322;5.926;2023-04-20T01:25:30;5.50;63.70
69189;DHT22;56302;52.322;5.926;2023-04-20T01:27:56;5.50;63.70
69189;DHT22;56302;52.322;5.926;2023-04-20T01:30:22;5.60;64.10
69189;DHT22;56302;52.322;5.926;2023-04-20T01:32:47;5.60;64.30
69189;DHT22;56302;52.322;5.926;2023-04-20T01:35:13;5.60;64.00
69189;DHT22;56302;52.322;5.926;2023-04-20T01:37:39;5.70;64.20
69189;DHT22;56302;52.322;5.926;2023-04-20T01:40:08;5.70;64.70
69189;DHT22;56302;52.322;5.926;2023-04-20T01:42:34;5.70;64.60
69189;DHT22;56302;52.322;5.926;2023-04-20T01:45:00;5.70;64.70
69189;DHT22;56302;52.322;5.926;2023-04-20T01:47:25;5.70;65.30
69189;DHT22;56302;52.322;5.926;2023-04-20T01:49:51;5.60;65.10
69189;DHT22;56302;52.322;5.926;2023-04-20T01:52:16;5.50;66.40
69189;DHT22;56302;52.322;5.926;2023-04-20T01:54:42;5.40;66.20
69189;DHT22;56302;52.322;5.926;2023-04-20T01:57:07;5.40;67.20
69189;DHT22;56302;52.322;5.926;2023-04-20T01:59:33;5.40;66.70
69189;DHT22;56302;52.322;5.926;2023-04-20T02:01:58;5.40;67.10
69189;DHT22;56302;52.322;5.926;2023-04-20T02:04:24;5.30;66.30
69189;DHT22;56302;52.322;5.926;2023-04-20T02:06:50;5.30;67.30
69189;DHT22;56302;52.322;5.926;2023-04-20T02:09:15;5.40;68.10
69189;DHT22;56302;52.322;5.926;2023-04-20T02:11:41;5.40;68.90
69189;DHT22;56302;52.322;5.926;2023-04-20T02:14:06;5.40;69.00
69189;DHT22;56302;52.322;5.926;2023-04-20T02:16:32;5.50;69.10
69189;DHT22;56302;52.322;5.926;2023-04-20T02:18:57;5.50;69.50
69189;DHT22;56302;52.322;5.926;2023-04-20T02:21:23;5.50;69.40
69189;DHT22;56302;52.322;5.926;2023-04-20T02:23:48;5.60;69.80
69189;DHT22;56302;52.322;5.926;2023-04-20T02:26:14;5.60;69.80
69189;DHT22;56302;52.322;5.926;2023-04-20T02:28:41;5.70;69.60
69189;DHT22;56302;52.322;5.926;2023-04-20T02:31:06;5.70;69.60
69189;DHT22;56302;52.322;5.926;2023-04-20T02:33:32;5.70;70.00
69189;DHT22;56302;52.322;5.926;2023-04-20T02:35:57;5.80;70.40
69189;DHT22;56302;52.322;5.926;2023-04-20T02:38:23;5.80;71.10
69189;DHT22;56302;52.322;5.926;2023-04-20T02:40:49;5.80;70.10
69189;DHT22;56302;52.322;5.926;2023-04-20T02:43:14;5.90;70.30
69189;DHT22;56302;52.322;5.926;2023-04-20T02:45:40;5.90;70.50
69189;DHT22;56302;52.322;5.926;2023-04-20T02:48:05;5.90;70.90
69189;DHT22;56302;52.322;5.926;2023-04-20T02:50:31;5.90;71.50
69189;DHT22;56302;52.322;5.926;2023-04-20T02:52:56;5.90;70.90
69189;DHT22;56302;52.322;5.926;2023-04-20T02:55:22;5.90;71.30
69189;DHT22;56302;52.322;5.926;2023-04-20T02:57:48;6.00;71.20
69189;DHT22;56302;52.322;5.926;2023-04-20T03:00:13;6.00;70.60
69189;DHT22;56302;52.322;5.926;2023-04-20T03:02:39;6.00;70.90
69189;DHT22;56302;52.322;5.926;2023-04-20T03:05:05;6.10;71.30
69189;DHT22;56302;52.322;5.926;2023-04-20T03:07:31;6.10;70.80
69189;DHT22;56302;52.322;5.926;2023-04-20T03:09:57;6.10;71.70
69189;DHT22;56302;52.322;5.926;2023-04-20T03:12:22;6.10;71.40
69189;DHT22;56302;52.322;5.926;2023-04-20T03:14:48;6.20;71.50
69189;DHT22;56302;52.322;5.926;2023-04-20T03:17:13;6.20;71.50
69189;DHT22;56302;52.322;5.926;2023-04-20T03:19:39;6.30;70.80
69189;DHT22;56302;52.322;5.926;2023-04-20T03:22:05;6.30;71.10
69189;DHT22;56302;52.322;5.926;2023-04-20T03:24:31;6.30;71.40
69189;DHT22;56302;52.322;5.926;2023-04-20T03:26:56;6.30;71.70
69189;DHT22;56302;52.322;5.926;2023-04-20T03:29:22;6.30;71.60
69189;DHT22;56302;52.322;5.926;2023-04-20T03:31:47;6.40;71.50
69189;DHT22;56302;52.322;5.926;2023-04-20T03:34:13;6.40;70.80
69189;DHT22;56302;52.322;5.926;2023-04-20T03:36:38;6.50;70.80
69189;DHT22;56302;52.322;5.926;2023-04-20T03:39:04;6.50;70.60
69189;DHT22;56302;52.322;5.926;2023-04-20T03:41:30;6.50;71.00
69189;DHT22;56302;52.322;5.926;2023-04-20T03:43:56;6.40;71.00
69189;DHT22;56302;52.322;5.926;2023-04-20T03:46:21;6.40;71.20
69189;DHT22;56302;52.322;5.926;2023-04-20T03:48:47;6.40;71.50
69189;DHT22;56302;52.322;5.926;2023-04-20T03:51:13;6.50;71.30
69189;DHT22;56302;52.322;5.926;2023-04-20T03:53:39;6.50;70.60
69189;DHT22;56302;52.322;5.926;2023-04-20T03:56:04;6.50;70.90
69189;DHT22;56302;52.322;5.926;2023-04-20T03:58:30;6.50;71.10
69189;DHT22;56302;52.322;5.926;2023-04-20T04:01:14;6.50;71.60
69189;DHT22;56302;52.322;5.926;2023-04-20T04:03:40;6.50;71.90
69189;DHT22;56302;52.322;5.926;2023-04-20T04:06:06;6.50;71.80
69189;DHT22;56302;52.322;5.926;2023-04-20T04:08:32;6.50;72.60
69189;DHT22;56302;52.322;5.926;2023-04-20T04:10:58;6.50;71.60
69189;DHT22;56302;52.322;5.926;2023-04-20T04:13:24;6.50;72.80
69189;DHT22;56302;52.322;5.926;2023-04-20T04:15:49;6.50;72.60
69189;DHT22;56302;52.322;5.926;2023-04-20T04:18:15;6.60;73.00
69189;DHT22;56302;52.322;5.926;2023-04-20T04:20:40;6.60;72.80
69189;DHT22;56302;52.322;5.926;2023-04-20T04:23:06;6.60;72.80
69189;DHT22;56302;52.322;5.926;2023-04-20T04:25:31;6.60;73.30
69189;DHT22;56302;52.322;5.926;2023-04-20T04:27:58;6.60;72.80
69189;DHT22;56302;52.322;5.926;2023-04-20T04:30:23;6.70;73.00
69189;DHT22;56302;52.322;5.926;2023-04-20T04:32:49;6.70;73.10
69189;DHT22;56302;52.322;5.926;2023-04-20T04:35:15;6.80;72.60
69189;DHT22;56302;52.322;5.926;2023-04-20T04:37:40;6.80;72.90
69189;DHT22;56302;52.322;5.926;2023-04-20T04:40:07;6.80;73.00
69189;DHT22;56302;52.322;5.926;2023-04-20T04:42:34;6.80;71.80
69189;DHT22;56302;52.322;5.926;2023-04-20T04:45:00;6.90;71.20
69189;DHT22;56302;52.322;5.926;2023-04-20T04:47:35;7.00;70.50
69189;DHT22;56302;52.322;5.926;2023-04-20T04:50:02;7.00;70.00
69189;DHT22;56302;52.322;5.926;2023-04-20T04:52:28;7.00;69.70
69189;DHT22;56302;52.322;5.926;2023-04-20T04:54:54;7.00;70.20
69189;DHT22;56302;52.322;5.926;2023-04-20T04:57:19;7.10;69.50
69189;DHT22;56302;52.322;5.926;2023-04-20T04:59:45;7.10;69.20
69189;DHT22;56302;52.322;5.926;2023-04-20T05:02:11;7.10;68.60
69189;DHT22;56302;52.322;5.926;2023-04-20T05:04:36;7.20;67.90
69189;DHT22;56302;52.322;5.926;2023-04-20T05:07:02;7.20;68.30
69189;DHT22;56302;52.322;5.926;2023-04-20T05:09:27;7.20;68.80
69189;DHT22;56302;52.322;5.926;2023-04-20T05:12:00;7.20;68.50
69189;DHT22;56302;52.322;5.926;2023-04-20T05:14:28;7.20;67.50
69189;DHT22;56302;52.322;5.926;2023-04-20T05:16:54;7.20;67.50
69189;DHT22;56302;52.322;5.926;2023-04-20T05:19:19;7.30;67.50
69189;DHT22;56302;52.322;5.926;2023-04-20T05:21:45;7.30;65.70
69189;DHT22;56302;52.322;5.926;2023-04-20T05:24:10;7.30;66.30
69189;DHT22;56302;52.322;5.926;2023-04-20T05:26:36;7.40;65.30
69189;DHT22;56302;52.322;5.926;2023-04-20T05:29:01;7.40;64.50
69189;DHT22;56302;52.322;5.926;2023-04-20T05:31:27;7.50;64.40
69189;DHT22;56302;52.322;5.926;2023-04-20T05:33:53;7.50;63.80
69189;DHT22;56302;52.322;5.926;2023-04-20T05:36:19;7.50;63.60
69189;DHT22;56302;52.322;5.926;2023-04-20T05:38:45;7.50;64.10
69189;DHT22;56302;52.322;5.926;2023-04-20T05:41:10;7.50;64.10
69189;DHT22;56302;52.322;5.926;2023-04-20T05:43:36;7.50;63.30
69189;DHT22;56302;52.322;5.926;2023-04-20T05:46:01;7.50;63.10
69189;DHT22;56302;52.322;5.926;2023-04-20T05:48:27;7.60;62.80
69189;DHT22;56302;52.322;5.926;2023-04-20T05:50:53;7.60;62.90
69189;DHT22;56302;52.322;5.926;2023-04-20T05:53:19;7.60;62.90
69189;DHT22;56302;52.322;5.926;2023-04-20T05:55:45;7.60;63.50
69189;DHT22;56302;52.322;5.926;2023-04-20T05:58:11;7.60;62.90
69189;DHT22;56302;52.322;5.926;2023-04-20T06:00:36;7.60;63.40
69189;DHT22;56302;52.322;5.926;2023-04-20T06:03:02;7.50;63.80
69189;DHT22;56302;52.322;5.926;2023-04-20T06:05:28;7.50;62.90
69189;DHT22;56302;52.322;5.926;2023-04-20T06:07:53;7.50;63.40
69189;DHT22;56302;52.322;5.926;2023-04-20T06:10:19;7.50;63.90
69189;DHT22;56302;52.322;5.926;2023-04-20T06:12:45;7.50;64.20
69189;DHT22;56302;52.322;5.926;2023-04-20T06:15:11;7.50;64.00
69189;DHT22;56302;52.322;5.926;2023-04-20T06:17:37;7.50;64.30
69189;DHT22;56302;52.322;5.926;2023-04-20T06:20:08;7.50;64.80
69189;DHT22;56302;52.322;5.926;2023-04-20T06:22:34;7.50;65.30
69189;DHT22;56302;52.322;5.926;2023-04-20T06:25:00;7.40;65.30
69189;DHT22;56302;52.322;5.926;2023-04-20T06:27:27;7.40;66.90
69189;DHT22;56302;52.322;5.926;2023-04-20T06:29:52;7.30;67.60
69189;DHT22;56302;52.322;5.926;2023-04-20T06:32:19;7.20;69.70
69189;DHT22;56302;52.322;5.926;2023-04-20T06:34:44;7.10;70.10
69189;DHT22;56302;52.322;5.926;2023-04-20T06:37:12;7.00;70.40
69189;DHT22;56302;52.322;5.926;2023-04-20T06:39:37;7.00;70.50
69189;DHT22;56302;52.322;5.926;2023-04-20T06:42:03;6.90;71.40
69189;DHT22;56302;52.322;5.926;2023-04-20T06:44:28;6.90;72.20
69189;DHT22;56302;52.322;5.926;2023-04-20T06:46:54;6.90;72.10
69189;DHT22;56302;52.322;5.926;2023-04-20T06:49:19;6.80;72.40
69189;DHT22;56302;52.322;5.926;2023-04-20T06:51:45;6.90;72.20
69189;DHT22;56302;52.322;5.926;2023-04-20T06:54:10;6.90;72.60
69189;DHT22;56302;52.322;5.926;2023-04-20T06:56:36;6.90;72.60
69189;DHT22;56302;52.322;5.926;2023-04-20T06:59:01;6.90;73.10
69189;DHT22;56302;52.322;5.926;2023-04-20T07:01:27;6.80;73.70
69189;DHT22;56302;52.322;5.926;2023-04-20T07:03:52;6.70;73.50
69189;DHT22;56302;52.322;5.926;2023-04-20T07:06:18;6.70;74.40
69189;DHT22;56302;52.322;5.926;2023-04-20T07:08:43;6.70;75.40
69189;DHT22;56302;52.322;5.926;2023-04-20T07:11:09;6.60;74.60
69189;DHT22;56302;52.322;5.926;2023-04-20T07:13:34;6.60;75.00
69189;DHT22;56302;52.322;5.926;2023-04-20T07:16:00;6.60;75.20
69189;DHT22;56302;52.322;5.926;2023-04-20T07:18:25;6.50;75.60
69189;DHT22;56302;52.322;5.926;2023-04-20T07:20:51;6.60;75.20
69189;DHT22;56302;52.322;5.926;2023-04-20T07:23:17;6.60;75.40
69189;DHT22;56302;52.322;5.926;2023-04-20T07:25:42;6.50;75.20
69189;DHT22;56302;52.322;5.926;2023-04-20T07:28:08;6.50;75.20
69189;DHT22;56302;52.322;5.926;2023-04-20T07:30:33;6.40;75.40
69189;DHT22;56302;52.322;5.926;2023-04-20T07:32:59;6.40;75.90
69189;DHT22;56302;52.322;5.926;2023-04-20T07:35:24;6.50;76.00
69189;DHT22;56302;52.322;5.926;2023-04-20T07:37:50;6.40;76.40
69189;DHT22;56302;52.322;5.926;2023-04-20T07:40:15;6.40;76.60
69189;DHT22;56302;52.322;5.926;2023-04-20T07:42:41;6.40;76.50
69189;DHT22;56302;52.322;5.926;2023-04-20T07:45:09;6.40;76.20
69189;DHT22;56302;52.322;5.926;2023-04-20T07:47:36;6.50;76.50
69189;DHT22;56302;52.322;5.926;2023-04-20T07:50:02;6.60;76.70
69189;DHT22;56302;52.322;5.926;2023-04-20T07:52:28;6.60;76.70
69189;DHT22;56302;52.322;5.926;2023-04-20T07:54:54;6.80;76.60
69189;DHT22;56302;52.322;5.926;2023-04-20T07:57:22;6.80;76.70
69189;DHT22;56302;52.322;5.926;2023-04-20T07:59:47;7.00;76.80
69189;DHT22;56302;52.322;5.926;2023-04-20T08:02:13;6.90;76.70
69189;DHT22;56302;52.322;5.926;2023-04-20T08:04:38;6.80;76.90
69189;DHT22;56302;52.322;5.926;2023-04-20T08:07:04;6.90;76.60
69189;DHT22;56302;52.322;5.926;2023-04-20T08:09:29;7.00;78.00
69189;DHT22;56302;52.322;5.926;2023-04-20T08:11:55;7.10;77.60
69189;DHT22;56302;52.322;5.926;2023-04-20T08:14:22;7.30;76.20
69189;DHT22;56302;52.322;5.926;2023-04-20T08:16:48;7.50;76.40
69189;DHT22;56302;52.322;5.926;2023-04-20T08:19:13;7.50;76.30
69189;DHT22;56302;52.322;5.926;2023-04-20T08:21:39;7.30;75.60
69189;DHT22;56302;52.322;5.926;2023-04-20T08:24:06;7.00;76.10
69189;DHT22;56302;52.322;5.926;2023-04-20T08:26:32;7.00;77.30
69189;DHT22;56302;52.322;5.926;2023-04-20T08:29:01;6.90;77.70
69189;DHT22;56302;52.322;5.926;2023-04-20T08:31:27;7.00;77.20
69189;DHT22;56302;52.322;5.926;2023-04-20T08:33:53;7.20;77.30
69189;DHT22;56302;52.322;5.926;2023-04-20T08:36:18;7.30;76.40
69189;DHT22;56302;52.322;5.926;2023-04-20T08:38:44;7.30;76.80
69189;DHT22;56302;52.322;5.926;2023-04-20T08:41:10;7.30;76.30
69189;DHT22;56302;52.322;5.926;2023-04-20T08:43:39;7.20;77.00
69189;DHT22;56302;52.322;5.926;2023-04-20T08:46:06;7.30;76.70
69189;DHT22;56302;52.322;5.926;2023-04-20T08:48:35;7.40;76.70
69189;DHT22;56302;52.322;5.926;2023-04-20T08:51:02;7.50;76.40
69189;DHT22;56302;52.322;5.926;2023-04-20T08:53:29;7.80;75.80
69189;DHT22;56302;52.322;5.926;2023-04-20T08:55:55;7.90;76.00
69189;DHT22;56302;52.322;5.926;2023-04-20T08:58:24;8.00;74.60
69189;DHT22;56302;52.322;5.926;2023-04-20T09:00:50;8.20;73.60
69189;DHT22;56302;52.322;5.926;2023-04-20T09:03:15;7.80;74.10
69189;DHT22;56302;52.322;5.926;2023-04-20T09:05:43;8.00;75.60
69189;DHT22;56302;52.322;5.926;2023-04-20T09:08:09;8.00;74.50
69189;DHT22;56302;52.322;5.926;2023-04-20T09:10:40;7.90;74.70
69189;DHT22;56302;52.322;5.926;2023-04-20T09:13:06;7.90;74.20
69189;DHT22;56302;52.322;5.926;2023-04-20T09:15:32;8.00;75.00
69189;DHT22;56302;52.322;5.926;2023-04-20T09:17:58;8.10;74.50
69189;DHT22;56302;52.322;5.926;2023-04-20T09:20:31;8.40;72.60
69189;DHT22;56302;52.322;5.926;2023-04-20T09:22:57;8.50;72.30
69189;DHT22;56302;52.322;5.926;2023-04-20T09:25:23;8.80;73.20
69189;DHT22;56302;52.322;5.926;2023-04-20T09:28:09;9.00;72.90
69189;DHT22;56302;52.322;5.926;2023-04-20T09:30:43;8.60;73.20
69189;DHT22;56302;52.322;5.926;2023-04-20T09:33:09;8.50;72.50
69189;DHT22;56302;52.322;5.926;2023-04-20T09:35:37;8.20;74.00
69189;DHT22;56302;52.322;5.926;2023-04-20T09:38:08;8.20;75.50
69189;DHT22;56302;52.322;5.926;2023-04-20T09:40:34;8.00;74.90
69189;DHT22;56302;52.322;5.926;2023-04-20T09:43:19;8.20;76.10
69189;DHT22;56302;52.322;5.926;2023-04-20T09:45:48;8.40;73.50
69189;DHT22;56302;52.322;5.926;2023-04-20T09:48:14;8.20;73.50
69189;DHT22;56302;52.322;5.926;2023-04-20T09:50:43;8.30;74.00
69189;DHT22;56302;52.322;5.926;2023-04-20T09:53:10;8.40;74.10
69189;DHT22;56302;52.322;5.926;2023-04-20T09:55:36;8.50;73.00
69189;DHT22;56302;52.322;5.926;2023-04-20T09:58:03;8.40;72.50
69189;DHT22;56302;52.322;5.926;2023-04-20T10:00:29;8.50;71.60
69189;DHT22;56302;52.322;5.926;2023-04-20T10:02:55;8.60;72.60
69189;DHT22;56302;52.322;5.926;2023-04-20T10:05:34;8.80;71.90
69189;DHT22;56302;52.322;5.926;2023-04-20T10:08:01;8.70;70.50
69189;DHT22;56302;52.322;5.926;2023-04-20T10:10:27;8.80;70.70
69189;DHT22;56302;52.322;5.926;2023-04-20T10:12:57;8.90;70.20
69189;DHT22;56302;52.322;5.926;2023-04-20T10:15:34;8.90;67.20
69189;DHT22;56302;52.322;5.926;2023-04-20T10:18:00;9.10;69.00
69189;DHT22;56302;52.322;5.926;2023-04-20T10:20:26;9.30;65.80
69189;DHT22;56302;52.322;5.926;2023-04-20T10:23:06;9.20;65.10
69189;DHT22;56302;52.322;5.926;2023-04-20T10:25:31;8.90;66.20
69189;DHT22;56302;52.322;5.926;2023-04-20T10:27:59;9.00;66.80
69189;DHT22;56302;52.322;5.926;2023-04-20T10:30:27;8.90;66.80
69189;DHT22;56302;52.322;5.926;2023-04-20T10:33:10;9.10;67.30
69189;DHT22;56302;52.322;5.926;2023-04-20T10:35:48;9.20;67.30
69189;DHT22;56302;52.322;5.926;2023-04-20T10:38:15;9.30;66.90
69189;DHT22;56302;52.322;5.926;2023-04-20T10:40:41;9.40;65.60
69189;DHT22;56302;52.322;5.926;2023-04-20T10:43:20;9.90;66.70
69189;DHT22;56302;52.322;5.926;2023-04-20T10:45:46;9.90;63.70
69189;DHT22;56302;52.322;5.926;2023-04-20T10:48:12;10.10;65.70
69189;DHT22;56302;52.322;5.926;2023-04-20T10:50:38;10.20;63.20
69189;DHT22;56302;52.322;5.926;2023-04-20T10:53:04;10.10;63.70
69189;DHT22;56302;52.322;5.926;2023-04-20T10:55:30;10.20;64.70
69189;DHT22;56302;52.322;5.926;2023-04-20T10:57:56;10.30;64.10
69189;DHT22;56302;52.322;5.926;2023-04-20T11:00:30;10.10;64.40
69189;DHT22;56302;52.322;5.926;2023-04-20T11:02:56;10.00;64.40
69189;DHT22;56302;52.322;5.926;2023-04-20T11:05:26;10.10;62.30
69189;DHT22;56302;52.322;5.926;2023-04-20T11:07:59;10.20;63.20
69189;DHT22;56302;52.322;5.926;2023-04-20T11:10:39;10.70;61.90
69189;DHT22;56302;52.322;5.926;2023-04-20T11:13:06;10.30;59.60
69189;DHT22;56302;52.322;5.926;2023-04-20T11:15:32;9.90;61.50
69189;DHT22;56302;52.322;5.926;2023-04-20T11:18:08;9.80;60.20
69189;DHT22;56302;52.322;5.926;2023-04-20T11:20:35;9.70;61.70
69189;DHT22;56302;52.322;5.926;2023-04-20T11:23:00;9.80;62.10
69189;DHT22;56302;52.322;5.926;2023-04-20T11:25:29;9.90;62.60
69189;DHT22;56302;52.322;5.926;2023-04-20T11:28:07;10.20;62.40
69189;DHT22;56302;52.322;5.926;2023-04-20T11:30:40;10.20;60.80
69189;DHT22;56302;52.322;5.926;2023-04-20T11:33:06;10.20;61.70
69189;DHT22;56302;52.322;5.926;2023-04-20T11:35:35;9.80;61.00
69189;DHT22;56302;52.322;5.926;2023-04-20T11:38:02;9.70;60.20
69189;DHT22;56302;52.322;5.926;2023-04-20T11:40:27;9.90;61.50
69189;DHT22;56302;52.322;5.926;2023-04-20T11:42:53;9.90;60.50
69189;DHT22;56302;52.322;5.926;2023-04-20T11:45:18;9.80;60.30
69189;DHT22;56302;52.322;5.926;2023-04-20T11:47:44;9.70;62.50
69189;DHT22;56302;52.322;5.926;2023-04-20T11:50:10;9.80;63.70
69189;DHT22;56302;52.322;5.926;2023-04-20T11:52:37;9.80;61.70
69189;DHT22;56302;52.322;5.926;2023-04-20T11:55:03;9.70;60.00
69189;DHT22;56302;52.322;5.926;2023-04-20T11:57:28;9.60;61.00
69189;DHT22;56302;52.322;5.926;2023-04-20T11:59:54;9.70;61.00
69189;DHT22;56302;52.322;5.926;2023-04-20T12:02:20;9.50;60.30
69189;DHT22;56302;52.322;5.926;2023-04-20T12:04:45;9.50;61.30
69189;DHT22;56302;52.322;5.926;2023-04-20T12:07:11;9.60;61.80
69189;DHT22;56302;52.322;5.926;2023-04-20T12:09:36;9.60;62.00
69189;DHT22;56302;52.322;5.926;2023-04-20T12:12:06;9.70;62.40
69189;DHT22;56302;52.322;5.926;2023-04-20T12:14:33;9.60;62.30
69189;DHT22;56302;52.322;5.926;2023-04-20T12:16:59;9.60;61.40
69189;DHT22;56302;52.322;5.926;2023-04-20T12:19:25;9.60;61.60
69189;DHT22;56302;52.322;5.926;2023-04-20T12:21:51;9.60;61.50
69189;DHT22;56302;52.322;5.926;2023-04-20T12:24:16;9.60;62.30
69189;DHT22;56302;52.322;5.926;2023-04-20T12:26:42;9.70;61.50
69189;DHT22;56302;52.322;5.926;2023-04-20T12:29:07;9.70;61.10
69189;DHT22;56302;52.322;5.926;2023-04-20T12:31:33;9.70;61.70
69189;DHT22;56302;52.322;5.926;2023-04-20T12:34:00;9.80;62.40
69189;DHT22;56302;52.322;5.926;2023-04-20T12:36:26;9.80;61.20
69189;DHT22;56302;52.322;5.926;2023-04-20T12:38:52;9.90;62.10
69189;DHT22;56302;52.322;5.926;2023-04-20T12:41:23;9.90;62.30
69189;DHT22;56302;52.322;5.926;2023-04-20T12:43:49;9.70;62.30
69189;DHT22;56302;52.322;5.926;2023-04-20T12:46:15;9.70;63.30
69189;DHT22;56302;52.322;5.926;2023-04-20T12:48:41;9.80;63.70
69189;DHT22;56302;52.322;5.926;2023-04-20T12:51:06;10.00;63.00
69189;DHT22;56302;52.322;5.926;2023-04-20T12:53:32;10.40;61.60
69189;DHT22;56302;52.322;5.926;2023-04-20T12:55:57;10.30;61.90
69189;DHT22;56302;52.322;5.926;2023-04-20T12:58:24;10.30;60.90
69189;DHT22;56302;52.322;5.926;2023-04-20T13:00:49;10.40;60.90
69189;DHT22;56302;52.322;5.926;2023-04-20T13:03:15;10.60;60.30
69189;DHT22;56302;52.322;5.926;2023-04-20T13:05:41;10.70;58.40
69189;DHT22;56302;52.322;5.926;2023-04-20T13:08:07;10.60;58.40
69189;DHT22;56302;52.322;5.926;2023-04-20T13:10:35;10.60;59.50
69189;DHT22;56302;52.322;5.926;2023-04-20T13:13:01;10.60;58.30
69189;DHT22;56302;52.322;5.926;2023-04-20T13:15:26;10.60;58.50
69189;DHT22;56302;52.322;5.926;2023-04-20T13:17:52;10.70;59.00
69189;DHT22;56302;52.322;5.926;2023-04-20T13:20:17;10.70;59.80
69189;DHT22;56302;52.322;5.926;2023-04-20T13:22:43;10.50;59.10
69189;DHT22;56302;52.322;5.926;2023-04-20T13:25:09;10.40;59.90
69189;DHT22;56302;52.322;5.926;2023-04-20T13:27:34;10.40;58.50
69189;DHT22;56302;52.322;5.926;2023-04-20T13:30:00;10.50;59.20
69189;DHT22;56302;52.322;5.926;2023-04-20T13:32:25;10.40;59.50
69189;DHT22;56302;52.322;5.926;2023-04-20T13:34:51;10.50;60.00
69189;DHT22;56302;52.322;5.926;2023-04-20T13:37:17;10.70;60.20
69189;DHT22;56302;52.322;5.926;2023-04-20T13:39:43;10.70;58.40
69189;DHT22;56302;52.322;5.926;2023-04-20T13:42:08;10.70;58.40
69189;DHT22;56302;52.322;5.926;2023-04-20T13:44:34;10.60;57.60
69189;DHT22;56302;52.322;5.926;2023-04-20T13:47:00;10.60;57.40
69189;DHT22;56302;52.322;5.926;2023-04-20T13:49:26;10.50;57.60
69189;DHT22;56302;52.322;5.926;2023-04-20T13:51:51;10.60;58.20
69189;DHT22;56302;52.322;5.926;2023-04-20T13:54:17;10.80;58.40
69189;DHT22;56302;52.322;5.926;2023-04-20T13:56:42;11.00;58.80
69189;DHT22;56302;52.322;5.926;2023-04-20T13:59:08;10.90;57.70
69189;DHT22;56302;52.322;5.926;2023-04-20T14:01:34;10.90;58.40
69189;DHT22;56302;52.322;5.926;2023-04-20T14:03:59;10.90;58.80
69189;DHT22;56302;52.322;5.926;2023-04-20T14:06:25;11.00;58.90
69189;DHT22;56302;52.322;5.926;2023-04-20T14:08:52;11.10;57.60
69189;DHT22;56302;52.322;5.926;2023-04-20T14:11:18;11.20;57.00
69189;DHT22;56302;52.322;5.926;2023-04-20T14:13:43;11.30;57.30
69189;DHT22;56302;52.322;5.926;2023-04-20T14:16:11;11.20;56.30
69189;DHT22;56302;52.322;5.926;2023-04-20T14:18:37;11.10;57.70
69189;DHT22;56302;52.322;5.926;2023-04-20T14:21:03;11.30;56.20
69189;DHT22;56302;52.322;5.926;2023-04-20T14:23:29;11.30;56.00
69189;DHT22;56302;52.322;5.926;2023-04-20T14:25:55;11.40;56.10
69189;DHT22;56302;52.322;5.926;2023-04-20T14:28:21;11.30;57.30
69189;DHT22;56302;52.322;5.926;2023-04-20T14:30:46;11.20;56.00
69189;DHT22;56302;52.322;5.926;2023-04-20T14:33:12;11.20;54.70
69189;DHT22;56302;52.322;5.926;2023-04-20T14:35:38;11.00;55.10
69189;DHT22;56302;52.322;5.926;2023-04-20T14:38:03;11.00;55.40
69189;DHT22;56302;52.322;5.926;2023-04-20T14:40:32;11.10;55.00
69189;DHT22;56302;52.322;5.926;2023-04-20T14:42:58;11.00;55.00
69189;DHT22;56302;52.322;5.926;2023-04-20T14:45:23;10.90;54.70
69189;DHT22;56302;52.322;5.926;2023-04-20T14:47:53;11.00;55.40
69189;DHT22;56302;52.322;5.926;2023-04-20T14:50:19;11.20;55.90
69189;DHT22;56302;52.322;5.926;2023-04-20T14:52:45;11.20;56.30
69189;DHT22;56302;52.322;5.926;2023-04-20T14:55:10;11.10;55.50
69189;DHT22;56302;52.322;5.926;2023-04-20T14:57:36;11.30;55.20
69189;DHT22;56302;52.322;5.926;2023-04-20T15:00:03;11.40;54.40
69189;DHT22;56302;52.322;5.926;2023-04-20T15:02:30;11.30;55.30
69189;DHT22;56302;52.322;5.926;2023-04-20T15:04:56;11.10;55.00
69189;DHT22;56302;52.322;5.926;2023-04-20T15:07:23;10.90;55.50
69189;DHT22;56302;52.322;5.926;2023-04-20T15:09:49;10.70;56.40
69189;DHT22;56302;52.322;5.926;2023-04-20T15:12:14;10.70;56.80
69189;DHT22;56302;52.322;5.926;2023-04-20T15:14:40;11.00;57.70
69189;DHT22;56302;52.322;5.926;2023-04-20T15:17:05;11.40;55.30
69189;DHT22;56302;52.322;5.926;2023-04-20T15:19:31;11.60;55.40
69189;DHT22;56302;52.322;5.926;2023-04-20T15:21:56;11.30;54.00
69189;DHT22;56302;52.322;5.926;2023-04-20T15:24:22;11.00;54.20
69189;DHT22;56302;52.322;5.926;2023-04-20T15:26:48;10.90;54.90
69189;DHT22;56302;52.322;5.926;2023-04-20T15:29:13;11.00;55.00
69189;DHT22;56302;52.322;5.926;2023-04-20T15:31:40;11.10;54.60
69189;DHT22;56302;52.322;5.926;2023-04-20T15:34:07;11.30;53.90
69189;DHT22;56302;52.322;5.926;2023-04-20T15:36:33;11.40;53.90